Time;durP1;ratioP1;P1;durP2;ratioP2;P2;SDS_P1;SDS_P2;PMS_P1;PMS_P2;Temp;Humidity;BMP_temperature;BMP_pressure;BME280_temperature;BME280_humidity;BME280_pressure;Samples;Min_cycle;Max_cycle;Signal;HPM_P1;HPM_P2
2022/11/29 00:03:33;;;;;;;;;;;;;;;;;;8431132;28;27221;-74
2022/11/29 00:07:33;;;;;;;;;;;;;;;;;;8429624;28;27373;-75
2022/11/29 00:15:52;;;;;;;;;;;;;;;;;;8427267;28;27403;-75
2022/11/29 00:19:52;;;;;;;;;;;;;;;;;;8418605;27;27410;-76
2022/11/29 00:23:53;;;;;;;;;;;;;;;;;;8413458;27;29750;-75
2022/11/29 00:27:53;;;;;;;;;;;;;;;;;;8430177;27;27526;-74
2022/11/29 00:31:53;;;;;;;;;;;;;;;;;;8427153;27;27453;-74
2022/11/29 00:35:53;;;;;;;;;;;;;;;;;;8411592;28;28474;-72
2022/11/29 00:39:53;;;;;;;;;;;;;;;;;;8423244;28;27419;-75
2022/11/29 00:43:53;;;;;;;;;;;;;;;;;;8425052;28;28191;-75
2022/11/29 00:47:53;;;;;;;;;;;;;;;;;;8424629;28;28111;-75
2022/11/29 00:51:53;;;;;;;;;;;;;;;;;;8423980;28;27703;-76
2022/11/29 00:55:53;;;;;;;;;;;;;;;;;;8424237;27;27444;-77
2022/11/29 00:59:53;;;;;;;;;;;;;;;;;;8424626;28;27129;-76
2022/11/29 01:03:53;;;;;;;;;;;;;;;;;;8408358;28;28453;-75
2022/11/29 01:07:54;;;;;;;;;;;;;;;;;;8427780;28;27407;-75
2022/11/29 01:11:54;;;;;;;;;;;;;;;;;;8426410;28;27699;-75
2022/11/29 01:15:54;;;;;;;;;;;;;;;;;;8426850;28;27347;-75
2022/11/29 01:19:54;;;;;;;;;;;;;;;;;;8427969;27;27407;-75
2022/11/29 01:23:54;;;;;;;;;;;;;;;;;;8407511;27;28599;-76
2022/11/29 01:27:54;;;;;;;;;;;;;;;;;;8423063;27;27324;-75
2022/11/29 01:31:54;;;;;;;;;;;;;;;;;;8429568;27;28143;-75
2022/11/29 01:35:54;;;;;;;;;;;;;;;;;;8425557;28;27450;-76
2022/11/29 01:39:54;;;;;;;;;;;;;;;;;;8411798;28;28932;-74
2022/11/29 01:43:54;;;;;;;;;;;;;;;;;;8408023;28;29600;-75
2022/11/29 01:47:55;;;;;;;;;;;;;;;;;;8430729;27;27403;-74
2022/11/29 01:51:55;;;;;;;;;;;;;;;;;;8429227;27;27516;-74
2022/11/29 01:55:55;;;;;;;;;;;;;;;;;;8426024;28;27242;-76
2022/11/29 01:59:55;;;;;;;;;;;;;;;;;;8421832;27;27183;-76
2022/11/29 02:03:55;;;;;;;;;;;;;;;;;;8426982;27;27375;-76
2022/11/29 02:07:55;;;;;;;;;;;;;;;;;;8424560;27;27309;-76
2022/11/29 02:11:55;;;;;;;;;;;;;;;;;;8400352;28;28913;-75
2022/11/29 02:15:55;;;;;;;;;;;;;;;;;;8428683;28;27201;-75
2022/11/29 02:19:55;;;;;;;;;;;;;;;;;;8418984;28;27703;-75
2022/11/29 02:23:55;;;;;;;;;;;;;;;;;;8426333;28;27397;-75
2022/11/29 02:27:56;;;;;;;;;;;;;;;;;;8426055;28;27338;-75
2022/11/29 02:31:56;;;;;;;;;;;;;;;;;;8424674;28;27197;-76
2022/11/29 02:35:56;;;;;;;;;;;;;;;;;;8423577;28;27132;-76
2022/11/29 02:39:56;;;;;;;;;;;;;;;;;;8422031;28;29184;-76
2022/11/29 02:43:56;;;;;;;;;;;;;;;;;;8426474;28;27659;-75
2022/11/29 02:47:56;;;;;;;;;;;;;;;;;;8420547;28;27487;-75
2022/11/29 02:51:56;;;;;;;;;;;;;;;;;;8423198;28;27694;-76
2022/11/29 02:55:57;;;;;;;;;;;;;;;;;;8406726;28;28436;-76
2022/11/29 02:59:57;;;;;;;;;;;;;;;;;;8426962;28;28089;-75
2022/11/29 03:03:57;;;;;;;;;;;;;;;;;;8405703;28;29037;-77
2022/11/29 03:07:57;;;;;;;;;;;;;;;;;;8403312;28;28576;-76
2022/11/29 03:11:57;;;;;;;;;;;;;;;;;;8405535;28;28349;-76
2022/11/29 03:15:57;;;;;;;;;;;;;;;;;;8421004;28;27479;-76
2022/11/29 03:19:57;;;;;;;;;;;;;;;;;;8426630;27;27321;-77
2022/11/29 03:23:57;;;;;;;;;;;;;;;;;;8428014;28;27345;-76
2022/11/29 03:27:57;;;;;;;;;;;;;;;;;;8410540;28;29489;-76
2022/11/29 03:31:58;;;;;;;;;;;;;;;;;;8431198;28;27536;-76
2022/11/29 03:35:58;;;;;;;;;;;;;;;;;;8428349;28;27413;-76
2022/11/29 03:39:58;;;;;;;;;;;;;;;;;;8432341;28;27085;-76
2022/11/29 03:43:58;;;;;;;;;;;;;;;;;;8431249;28;27348;-76
2022/11/29 03:47:58;;;;;;;;;;;;;;;;;;8427568;28;27275;-76
2022/11/29 03:51:58;;;;;;;;;;;;;;;;;;8429081;28;27333;-76
2022/11/29 03:55:58;;;;;;;;;;;;;;;;;;8431103;28;27248;-76
2022/11/29 03:59:58;;;;;;;;;;;;;;;;;;8428386;28;27423;-76
2022/11/29 04:03:58;;;;;;;;;;;;;;;;;;8427956;28;27499;-75
2022/11/29 04:07:59;;;;;;;;;;;;;;;;;;8409418;28;28929;-76
2022/11/29 04:11:59;;;;;;;;;;;;;;;;;;8428815;27;27477;-76
2022/11/29 04:16:01;;;;;;;;;;;;;;;;;;8429866;28;28219;-76
2022/11/29 04:20:01;;;;;;;;;;;;;;;;;;8407072;28;28435;-76
2022/11/29 04:24:01;;;;;;;;;;;;;;;;;;8425079;28;27746;-76
2022/11/29 04:28:01;;;;;;;;;;;;;;;;;;8426128;28;27387;-75
2022/11/29 04:32:02;;;;;;;;;;;;;;;;;;8427095;28;27727;-77
2022/11/29 04:36:02;;;;;;;;;;;;;;;;;;8410078;28;28389;-76
2022/11/29 04:40:02;;;;;;;;;;;;;;;;;;8423617;28;28014;-75
2022/11/29 04:44:02;;;;;;;;;;;;;;;;;;8427023;28;28620;-76
2022/11/29 04:48:02;;;;;;;;;;;;;;;;;;8426722;28;27291;-76
2022/11/29 04:52:02;;;;;;;;;;;;;;;;;;8426590;28;27584;-76
2022/11/29 04:56:02;;;;;;;;;;;;;;;;;;8426351;28;27088;-76
2022/11/29 05:00:05;;;;;;;;;;;;;;;;;;8422567;28;27474;-76
2022/11/29 05:04:05;;;;;;;;;;;;;;;;;;8424089;28;27671;-76
2022/11/29 05:08:06;;;;;;;;;;;;;;;;;;8408787;28;28879;-77
2022/11/29 05:12:06;;;;;;;;;;;;;;;;;;8405997;28;28519;-77
2022/11/29 05:16:06;;;;;;;;;;;;;;;;;;8410046;28;28140;-76
2022/11/29 05:20:06;;;;;;;;;;;;;;;;;;8421409;28;27397;-76
2022/11/29 05:24:07;;;;;;;;;;;;;;;;;;8419519;28;27853;-76
2022/11/29 05:28:07;;;;;;;;;;;;;;;;;;8419334;28;27696;-76
2022/11/29 05:32:07;;;;;;;;;;;;;;;;;;8404533;28;28534;-76
2022/11/29 05:36:07;;;;;;;;;;;;;;;;;;8421625;28;27354;-76
2022/11/29 05:40:07;;;;;;;;;;;;;;;;;;8401941;27;28642;-76
2022/11/29 05:44:07;;;;;;;;;;;;;;;;;;8420615;27;27527;-76
2022/11/29 05:48:07;;;;;;;;;;;;;;;;;;8424199;27;27361;-76
2022/11/29 05:52:07;;;;;;;;;;;;;;;;;;8423861;27;28255;-75
2022/11/29 05:56:07;;;;;;;;;;;;;;;;;;8427704;27;27843;-76
2022/11/29 06:00:08;;;;;;;;;;;;;;;;;;8403516;27;27453;-76
2022/11/29 06:04:08;;;;;;;;;;;;;;;;;;8420787;28;27227;-76
2022/11/29 06:08:08;;;;;;;;;;;;;;;;;;8420713;28;27355;-76
2022/11/29 06:12:08;;;;;;;;;;;;;;;;;;8421239;28;27616;-75
2022/11/29 06:16:08;;;;;;;;;;;;;;;;;;8421502;28;28522;-76
2022/11/29 06:20:09;;;;;;;;;;;;;;;;;;8426261;28;27402;-76
2022/11/29 06:24:09;;;;;;;;;;;;;;;;;;8428407;28;27245;-75
2022/11/29 06:28:10;;;;;;;;;;;;;;;;;;8428435;28;27113;-77
2022/11/29 06:32:10;;;;;;;;;;;;;;;;;;8425852;28;27798;-77
2022/11/29 06:36:10;;;;;;;;;;;;;;;;;;8425152;28;27088;-76
2022/11/29 06:40:10;;;;;;;;;;;;;;;;;;8424780;28;27431;-76
2022/11/29 06:44:10;;;;;;;;;;;;;;;;;;8423267;28;27906;-76
2022/11/29 06:48:10;;;;;;;;;;;;;;;;;;8424237;28;27488;-75
2022/11/29 06:52:10;;;;;;;;;;;;;;;;;;8422650;28;27539;-76
2022/11/29 06:56:10;;;;;;;;;;;;;;;;;;8422821;28;27491;-76
2022/11/29 07:00:10;;;;;;;;;;;;;;;;;;8425702;28;27316;-76
2022/11/29 07:04:10;;;;;;;;;;;;;;;;;;8406184;28;29683;-76
2022/11/29 07:08:10;;;;;;;;;;;;;;;;;;8425866;28;27607;-77
2022/11/29 07:12:10;;;;;;;;;;;;;;;;;;8422618;28;28450;-76
2022/11/29 07:16:11;;;;;;;;;;;;;;;;;;8425701;28;27299;-76
2022/11/29 07:20:11;;;;;;;;;;;;;;;;;;8408862;28;28620;-75
2022/11/29 07:24:11;;;;;;;;;;;;;;;;;;8423469;28;27643;-76
2022/11/29 07:28:11;;;;;;;;;;;;;;;;;;8423658;28;27309;-77
2022/11/29 07:32:11;;;;;;;;;;;;;;;;;;8426622;28;27246;-75
2022/11/29 07:36:11;;;;;;;;;;;;;;;;;;8423256;28;27414;-75
2022/11/29 07:40:11;;;;;;;;;;;;;;;;;;8423424;28;28522;-76
2022/11/29 07:44:11;;;;;;;;;;;;;;;;;;8422497;28;27423;-75
2022/11/29 07:48:11;;;;;;;;;;;;;;;;;;8423323;28;27474;-75
2022/11/29 07:52:11;;;;;;;;;;;;;;;;;;8424033;28;27956;-76
2022/11/29 07:56:11;;;;;;;;;;;;;;;;;;8407879;28;28440;-77
2022/11/29 08:00:12;;;;;;;;;;;;;;;;;;8417545;28;27471;-76
2022/11/29 08:04:13;;;;;;;;;;;;;;;;;;8422614;27;27489;-76
2022/11/29 08:08:13;;;;;;;;;;;;;;;;;;8411479;28;28436;-76
2022/11/29 08:12:13;;;;;;;;;;;;;;;;;;8431650;28;27305;-76
2022/11/29 08:16:13;;;;;;;;;;;;;;;;;;8427805;28;27330;-76
2022/11/29 08:20:13;;;;;;;;;;;;;;;;;;8402321;28;28119;-75
2022/11/29 08:24:13;;;;;;;;;;;;;;;;;;8433354;28;27491;-77
2022/11/29 08:28:13;;;;;;;;;;;;;;;;;;8431653;28;28124;-76
2022/11/29 08:32:13;;;;;;;;;;;;;;;;;;8430704;28;27140;-76
2022/11/29 08:36:13;;;;;;;;;;;;;;;;;;8423813;28;27397;-74
2022/11/29 08:40:13;;;;;;;;;;;;;;;;;;8425309;28;27677;-77
2022/11/29 08:44:13;;;;;;;;;;;;;;;;;;8426110;28;27758;-76
2022/11/29 08:48:13;;;;;;;;;;;;;;;;;;8425418;28;27234;-76
2022/11/29 08:56:33;;;;;;;;;;;;;;;;;;8421909;28;27339;-76
2022/11/29 09:00:33;;;;;;;;;;;;;;;;;;8426255;27;27344;-76
2022/11/29 09:04:33;;;;;;;;;;;;;;;;;;8425547;28;27328;-76
2022/11/29 09:08:33;;;;;;;;;;;;;;;;;;8426703;27;27259;-76
2022/11/29 09:12:33;;;;;;;;;;;;;;;;;;8428778;28;27370;-76
2022/11/29 09:16:33;;;;;;;;;;;;;;;;;;8423660;27;27239;-77
2022/11/29 09:20:33;;;;;;;;;;;;;;;;;;8429048;28;27324;-76
2022/11/29 09:24:33;;;;;;;;;;;;;;;;;;8428738;27;27447;-76
2022/11/29 09:28:33;;;;;;;;;;;;;;;;;;8426690;28;27435;-77
2022/11/29 09:32:33;;;;;;;;;;;;;;;;;;8430376;28;27292;-76
2022/11/29 09:36:35;;;;;;;;;;;;;;;;;;8426793;28;47837;-75
2022/11/29 09:40:35;;;;;;;;;;;;;;;;;;8430118;28;27486;-75
2022/11/29 09:44:35;;;;;;;;;;;;;;;;;;8428059;28;27138;-75
2022/11/29 09:48:35;;;;;;;;;;;;;;;;;;8428067;28;28446;-76
2022/11/29 09:52:36;;;;;;;;;;;;;;;;;;8427599;28;27516;-76
2022/11/29 09:56:36;;;;;;;;;;;;;;;;;;8429694;28;27219;-76
2022/11/29 10:00:36;;;;;;;;;;;;;;;;;;8428565;28;27296;-77
2022/11/29 10:04:36;;;;;;;;;;;;;;;;;;8425576;28;27291;-76
2022/11/29 10:08:36;;;;;;;;;;;;;;;;;;8427399;28;27310;-76
2022/11/29 10:12:36;;;;;;;;;;;;;;;;;;8428198;28;28045;-75
2022/11/29 10:16:36;;;;;;;;;;;;;;;;;;8426403;28;27340;-76
2022/11/29 10:20:36;;;;;;;;;;;;;;;;;;8428722;28;27457;-75
2022/11/29 10:24:37;;;;;;;;;;;;;;;;;;8427163;28;27147;-77
2022/11/29 10:28:37;;;;;;;;;;;;;;;;;;8423496;28;27783;-77
2022/11/29 10:32:37;;;;;;;;;;;;;;;;;;8425607;28;27006;-73
2022/11/29 10:36:37;;;;;;;;;;;;;;;;;;8425195;28;27405;-76
2022/11/29 10:40:37;;;;;;;;;;;;;;;;;;8409743;28;28870;-75
2022/11/29 10:44:37;;;;;;;;;;;;;;;;;;8425996;28;27663;-76
2022/11/29 10:48:37;;;;;;;;;;;;;;;;;;8428052;28;27509;-75
2022/11/29 10:52:38;;;;;;;;;;;;;;;;;;8421217;28;29632;-76
2022/11/29 10:56:39;;;;;;;;;;;;;;;;;;8427981;28;27510;-73
2022/11/29 11:00:39;;;;;;;;;;;;;;;;;;8407125;28;28753;-75
2022/11/29 11:04:39;;;;;;;;;;;;;;;;;;8425190;28;27588;-76
2022/11/29 11:08:39;;;;;;;;;;;;;;;;;;8427766;28;27674;-76
2022/11/29 11:12:39;;;;;;;;;;;;;;;;;;8424479;28;27601;-74
2022/11/29 11:16:39;;;;;;;;;;;;;;;;;;8424520;28;27394;-76
2022/11/29 11:20:39;;;;;;;;;;;;;;;;;;8423707;28;27399;-75
2022/11/29 11:24:39;;;;;;;;;;;;;;;;;;8425285;28;27315;-76
2022/11/29 11:28:39;;;;;;;;;;;;;;;;;;8404131;28;29060;-77
2022/11/29 11:32:40;;;;;;;;;;;;;;;;;;8424874;28;27273;-76
2022/11/29 11:36:40;;;;;;;;;;;;;;;;;;8423429;28;27749;-77
2022/11/29 11:40:40;;;;;;;;;;;;;;;;;;8423872;27;27837;-76
2022/11/29 11:44:40;;;;;;;;;;;;;;;;;;8431439;28;27684;-76
2022/11/29 11:48:41;;;;;;;;;;;;;;;;;;8426850;28;27893;-76
2022/11/29 11:52:41;;;;;;;;;;;;;;;;;;8432656;28;27361;-77
2022/11/29 11:56:41;;;;;;;;;;;;;;;;;;8412277;28;28828;-75
2022/11/29 12:00:41;;;;;;;;;;;;;;;;;;8431326;28;27528;-76
2022/11/29 12:04:41;;;;;;;;;;;;;;;;;;8429715;28;27454;-76
2022/11/29 12:08:41;;;;;;;;;;;;;;;;;;8429263;28;27326;-76
2022/11/29 12:12:41;;;;;;;;;;;;;;;;;;8411706;28;28663;-77
2022/11/29 12:16:41;;;;;;;;;;;;;;;;;;8429866;28;27727;-75
2022/11/29 12:20:42;;;;;;;;;;;;;;;;;;8430456;28;28640;-76
2022/11/29 12:24:42;;;;;;;;;;;;;;;;;;8432254;28;27660;-75
2022/11/29 12:28:42;;;;;;;;;;;;;;;;;;8430082;28;28764;-77
2022/11/29 12:32:42;;;;;;;;;;;;;;;;;;8430016;28;28322;-76
2022/11/29 12:36:42;;;;;;;;;;;;;;;;;;8427085;28;27410;-75
2022/11/29 12:40:42;;;;;;;;;;;;;;;;;;8430423;28;27521;-76
2022/11/29 12:44:42;;;;;;;;;;;;;;;;;;8429017;28;28033;-76
2022/11/29 12:48:42;;;;;;;;;;;;;;;;;;8409702;28;28521;-78
2022/11/29 12:52:42;;;;;;;;;;;;;;;;;;8425050;28;27836;-77
2022/11/29 12:56:42;;;;;;;;;;;;;;;;;;8430592;28;27100;-77
2022/11/29 13:00:42;;;;;;;;;;;;;;;;;;8430942;28;27442;-77
2022/11/29 13:04:42;;;;;;;;;;;;;;;;;;8424999;28;27359;-76
2022/11/29 13:08:43;;;;;;;;;;;;;;;;;;8429693;28;27229;-76
2022/11/29 13:12:43;;;;;;;;;;;;;;;;;;8402699;28;29979;-76
2022/11/29 13:16:44;;;;;;;;;;;;;;;;;;8425197;27;27348;-76
2022/11/29 13:20:44;;;;;;;;;;;;;;;;;;8426911;27;27306;-76
2022/11/29 13:24:44;;;;;;;;;;;;;;;;;;8421340;27;28378;-76
2022/11/29 13:28:45;;;;;;;;;;;;;;;;;;8421722;28;27405;-77
2022/11/29 13:32:45;;;;;;;;;;;;;;;;;;8408231;28;28869;-75
2022/11/29 13:36:45;;;;;;;;;;;;;;;;;;8418799;27;27170;-76
2022/11/29 13:40:45;;;;;;;;;;;;;;;;;;8426805;27;27770;-77
2022/11/29 13:44:45;;;;;;;;;;;;;;;;;;8417699;27;27522;-76
2022/11/29 13:48:48;;;;;;;;;;;;;;;;;;8411967;27;28389;-77
2022/11/29 13:52:48;;;;;;;;;;;;;;;;;;8397032;27;28302;-76
2022/11/29 13:56:48;;;;;;;;;;;;;;;;;;8422865;27;28359;-76
2022/11/29 14:00:49;;;;;;;;;;;;;;;;;;8425321;27;27861;-76
2022/11/29 14:04:49;;;;;;;;;;;;;;;;;;8421028;28;27269;-76
2022/11/29 14:08:49;;;;;;;;;;;;;;;;;;8418806;27;28089;-76
2022/11/29 14:12:49;;;;;;;;;;;;;;;;;;8404741;27;28523;-76
2022/11/29 14:16:49;;;;;;;;;;;;;;;;;;8423458;27;28111;-77
2022/11/29 14:20:49;;;;;;;;;;;;;;;;;;8418375;27;27457;-77
2022/11/29 14:24:49;;;;;;;;;;;;;;;;;;8399437;27;28218;-76
2022/11/29 14:28:49;;;;;;;;;;;;;;;;;;8419481;28;27846;-77
2022/11/29 14:32:49;;;;;;;;;;;;;;;;;;8424512;28;27309;-76
2022/11/29 14:36:49;;;;;;;;;;;;;;;;;;8417996;28;27399;-77
2022/11/29 14:40:49;;;;;;;;;;;;;;;;;;8418116;27;28176;-75
2022/11/29 14:44:50;;;;;;;;;;;;;;;;;;8419661;28;27274;-74
2022/11/29 14:48:50;;;;;;;;;;;;;;;;;;8403450;28;28258;-76
2022/11/29 14:52:50;;;;;;;;;;;;;;;;;;8418545;28;27433;-76
2022/11/29 14:56:50;;;;;;;;;;;;;;;;;;8421866;28;27411;-74
2022/11/29 15:00:50;;;;;;;;;;;;;;;;;;8421362;28;27996;-76
2022/11/29 15:04:50;;;;;;;;;;;;;;;;;;8399037;27;28383;-75
2022/11/29 15:08:50;;;;;;;;;;;;;;;;;;8404641;27;28619;-74
2022/11/29 15:12:50;;;;;;;;;;;;;;;;;;8422591;27;27423;-73
2022/11/29 15:16:51;;;;;;;;;;;;;;;;;;8427028;27;27678;-75
2022/11/29 15:20:53;;;;;;;;;;;;;;;;;;8428593;27;27365;-74
2022/11/29 15:24:53;;;;;;;;;;;;;;;;;;8426666;28;27635;-76
2022/11/29 15:28:53;;;;;;;;;;;;;;;;;;8424362;28;28892;-75
2022/11/29 15:32:54;;;;;;;;;;;;;;;;;;8423856;27;27331;-75
2022/11/29 15:36:54;;;;;;;;;;;;;;;;;;8424473;27;27812;-75
2022/11/29 15:40:54;;;;;;;;;;;;;;;;;;8425774;27;27466;-75
2022/11/29 15:44:54;;;;;;;;;;;;;;;;;;8404976;28;28927;-75
2022/11/29 15:48:54;;;;;;;;;;;;;;;;;;8405303;27;28397;-72
2022/11/29 15:52:54;;;;;;;;;;;;;;;;;;8422725;27;27680;-75
2022/11/29 15:56:54;;;;;;;;;;;;;;;;;;8410061;28;28560;-75
2022/11/29 16:00:54;;;;;;;;;;;;;;;;;;8426418;28;27871;-75
2022/11/29 16:04:54;;;;;;;;;;;;;;;;;;8409591;28;28470;-75
2022/11/29 16:08:54;;;;;;;;;;;;;;;;;;8407768;28;28758;-76
2022/11/29 16:12:55;;;;;;;;;;;;;;;;;;8411041;28;28658;-75
2022/11/29 16:16:55;;;;;;;;;;;;;;;;;;8410261;28;28755;-76
2022/11/29 16:20:55;;;;;;;;;;;;;;;;;;8408561;28;28915;-75
2022/11/29 16:24:55;;;;;;;;;;;;;;;;;;8421856;27;27270;-74
2022/11/29 16:28:56;;;;;;;;;;;;;;;;;;8427200;27;28162;-75
2022/11/29 16:32:56;;;;;;;;;;;;;;;;;;8427352;27;27618;-75
2022/11/29 16:36:56;;;;;;;;;;;;;;;;;;8427935;27;27268;-75
2022/11/29 16:40:57;;;;;;;;;;;;;;;;;;8430582;27;28034;-76
2022/11/29 16:44:57;;;;;;;;;;;;;;;;;;8418362;27;27716;-75
2022/11/29 16:48:57;;;;;;;;;;;;;;;;;;8418008;27;27129;-75
2022/11/29 16:52:58;;;;;;;;;;;;;;;;;;8421355;28;27457;-74
2022/11/29 16:56:58;;;;;;;;;;;;;;;;;;8424485;27;27225;-75
2022/11/29 17:00:58;;;;;;;;;;;;;;;;;;8426984;27;27486;-75
2022/11/29 17:04:58;;;;;;;;;;;;;;;;;;8404496;27;28788;-74
2022/11/29 17:08:58;;;;;;;;;;;;;;;;;;8422721;27;27330;-75
2022/11/29 17:13:00;;;;;;;;;;;;;;;;;;8425673;28;28087;-75
2022/11/29 17:17:00;;;;;;;;;;;;;;;;;;8424624;28;27588;-76
2022/11/29 17:21:00;;;;;;;;;;;;;;;;;;8427221;28;27357;-76
2022/11/29 17:25:00;;;;;;;;;;;;;;;;;;8425505;28;27278;-75
2022/11/29 17:29:00;;;;;;;;;;;;;;;;;;8409788;27;29007;-75
2022/11/29 17:33:00;;;;;;;;;;;;;;;;;;8427209;27;27515;-75
2022/11/29 17:37:00;;;;;;;;;;;;;;;;;;8423915;28;27583;-75
2022/11/29 17:41:00;;;;;;;;;;;;;;;;;;8421014;27;27329;-76
2022/11/29 17:45:00;;;;;;;;;;;;;;;;;;8416371;27;27993;-75
2022/11/29 17:49:01;;;;;;;;;;;;;;;;;;8418553;27;27571;-76
2022/11/29 17:53:01;;;;;;;;;;;;;;;;;;8420864;28;27430;-75
2022/11/29 17:57:03;;;;;;;;;;;;;;;;;;8423828;28;27357;-76
2022/11/29 18:01:03;;;;;;;;;;;;;;;;;;8404217;28;29505;-75
2022/11/29 18:05:03;;;;;;;;;;;;;;;;;;8420960;27;27307;-72
2022/11/29 18:09:03;;;;;;;;;;;;;;;;;;8403775;27;28550;-76
2022/11/29 18:13:04;;;;;;;;;;;;;;;;;;8422050;27;27531;-76
2022/11/29 18:17:04;;;;;;;;;;;;;;;;;;8426224;27;27431;-75
2022/11/29 18:21:04;;;;;;;;;;;;;;;;;;8432398;27;27350;-74
2022/11/29 18:25:04;;;;;;;;;;;;;;;;;;8431275;27;27734;-75
2022/11/29 18:29:04;;;;;;;;;;;;;;;;;;8426630;27;27380;-76
2022/11/29 18:33:04;;;;;;;;;;;;;;;;;;8406154;28;28722;-76
2022/11/29 18:37:04;;;;;;;;;;;;;;;;;;8422632;28;28289;-76
2022/11/29 18:41:04;;;;;;;;;;;;;;;;;;8423475;28;27554;-75
2022/11/29 18:45:05;;;;;;;;;;;;;;;;;;8404813;28;28329;-76
2022/11/29 18:49:05;;;;;;;;;;;;;;;;;;8422132;28;27587;-77
2022/11/29 18:53:05;;;;;;;;;;;;;;;;;;8420286;28;27331;-76
2022/11/29 18:57:05;;;;;;;;;;;;;;;;;;8424923;28;27500;-75
2022/11/29 19:01:05;;;;;;;;;;;;;;;;;;8425600;28;27382;-74
2022/11/29 19:05:05;;;;;;;;;;;;;;;;;;8395471;28;27484;-76
2022/11/29 19:09:05;;;;;;;;;;;;;;;;;;8398609;28;28289;-76
2022/11/29 19:13:05;;;;;;;;;;;;;;;;;;8423462;28;27172;-75
2022/11/29 19:17:05;;;;;;;;;;;;;;;;;;8392566;28;28484;-76
2022/11/29 19:21:06;;;;;;;;;;;;;;;;;;8402829;28;28009;-75
2022/11/29 19:25:06;;;;;;;;;;;;;;;;;;8371907;28;28344;-74
2022/11/29 19:29:06;;;;;;;;;;;;;;;;;;8392018;28;27243;-76
2022/11/29 19:33:06;;;;;;;;;;;;;;;;;;8368394;28;28887;-75
2022/11/29 19:37:08;;;;;;;;;;;;;;;;;;8386951;28;27155;-74
2022/11/29 19:41:08;;;;;;;;;;;;;;;;;;8393284;28;27671;-76
2022/11/29 19:45:10;;;;;;;;;;;;;;;;;;8387159;28;28182;-77
2022/11/29 19:49:10;;;;;;;;;;;;;;;;;;8372756;28;29388;-76
2022/11/29 19:53:10;;;;;;;;;;;;;;;;;;8389637;28;27645;-76
2022/11/29 19:57:10;;;;;;;;;;;;;;;;;;8393865;28;27170;-76
2022/11/29 20:01:10;;;;;;;;;;;;;;;;;;8391296;28;28435;-76
2022/11/29 20:05:11;;;;;;;;;;;;;;;;;;8395996;28;27225;-76
2022/11/29 20:09:12;;;;;;;;;;;;;;;;;;8378953;28;28440;-76
2022/11/29 20:13:12;;;;;;;;;;;;;;;;;;8379967;28;28506;-76
2022/11/29 20:17:12;;;;;;;;;;;;;;;;;;8370922;28;28659;-75
2022/11/29 20:21:12;;;;;;;;;;;;;;;;;;8379689;28;28062;-76
2022/11/29 20:25:12;;;;;;;;;;;;;;;;;;8379264;28;28669;-75
2022/11/29 20:29:12;;;;;;;;;;;;;;;;;;8375512;28;28563;-75
2022/11/29 20:33:12;;;;;;;;;;;;;;;;;;8397933;28;27593;-77
2022/11/29 20:37:13;;;;;;;;;;;;;;;;;;8375773;28;28785;-75
2022/11/29 20:41:13;;;;;;;;;;;;;;;;;;8392080;28;27498;-75
2022/11/29 20:45:13;;;;;;;;;;;;;;;;;;8377485;28;28545;-76
2022/11/29 20:49:14;;;;;;;;;;;;;;;;;;8374855;28;28612;-75
2022/11/29 20:53:14;;;;;;;;;;;;;;;;;;8375242;28;28264;-75
2022/11/29 20:57:14;;;;;;;;;;;;;;;;;;8376681;28;29054;-76
2022/11/29 21:01:14;;;;;;;;;;;;;;;;;;8392779;28;27568;-75
2022/11/29 21:05:15;;;;;;;;;;;;;;;;;;8389949;28;27728;-73
2022/11/29 21:09:15;;;;;;;;;;;;;;;;;;8375806;28;27632;-75
2022/11/29 21:13:15;;;;;;;;;;;;;;;;;;8391213;28;27522;-75
2022/11/29 21:17:15;;;;;;;;;;;;;;;;;;8374027;28;29528;-75
2022/11/29 21:21:15;;;;;;;;;;;;;;;;;;8392891;28;27411;-76
2022/11/29 21:25:16;;;;;;;;;;;;;;;;;;8386059;28;27587;-76
2022/11/29 21:29:16;;;;;;;;;;;;;;;;;;8391451;28;28592;-74
2022/11/29 21:33:16;;;;;;;;;;;;;;;;;;8365157;28;28311;-74
2022/11/29 21:37:16;;;;;;;;;;;;;;;;;;8371504;28;28786;-75
2022/11/29 21:41:16;;;;;;;;;;;;;;;;;;8390334;28;27955;-75
2022/11/29 21:45:17;;;;;;;;;;;;;;;;;;8386132;28;28269;-73
2022/11/29 21:49:17;;;;;;;;;;;;;;;;;;8389458;28;27722;-74
2022/11/29 21:53:17;;;;;;;;;;;;;;;;;;8375539;28;28527;-75
2022/11/29 21:57:17;;;;;;;;;;;;;;;;;;8392302;28;27476;-73
2022/11/29 22:01:17;;;;;;;;;;;;;;;;;;8391760;28;28491;-73
2022/11/29 22:05:17;;;;;;;;;;;;;;;;;;8389860;28;28908;-74
2022/11/29 22:09:17;;;;;;;;;;;;;;;;;;8377423;28;28533;-75
2022/11/29 22:13:17;;;;;;;;;;;;;;;;;;8377335;28;29154;-74
2022/11/29 22:17:17;;;;;;;;;;;;;;;;;;8392939;28;28521;-75
2022/11/29 22:21:17;;;;;;;;;;;;;;;;;;8409729;28;27642;-74
2022/11/29 22:25:17;;;;;;;;;;;;;;;;;;8421648;28;27703;-75
2022/11/29 22:29:17;;;;;;;;;;;;;;;;;;8403832;28;28557;-75
2022/11/29 22:33:18;;;;;;;;;;;;;;;;;;8406053;28;29785;-74
2022/11/29 22:37:18;;;;;;;;;;;;;;;;;;8424232;28;27294;-75
2022/11/29 22:41:18;;;;;;;;;;;;;;;;;;8424254;28;27333;-75
2022/11/29 22:45:18;;;;;;;;;;;;;;;;;;8408621;28;29046;-75
2022/11/29 22:49:18;;;;;;;;;;;;;;;;;;8422532;28;27423;-74
2022/11/29 22:53:18;;;;;;;;;;;;;;;;;;8425146;28;27983;-75
2022/11/29 22:57:18;;;;;;;;;;;;;;;;;;8405442;28;28474;-75
2022/11/29 23:01:18;;;;;;;;;;;;;;;;;;8418619;27;28771;-75
2022/11/29 23:05:18;;;;;;;;;;;;;;;;;;8404353;28;28590;-75
2022/11/29 23:09:20;;;;;;;;;;;;;;;;;;8402787;28;29109;-75
2022/11/29 23:13:20;;;;;;;;;;;;;;;;;;8419146;28;28067;-74
2022/11/29 23:17:20;;;;;;;;;;;;;;;;;;8402493;28;29899;-75
2022/11/29 23:21:20;;;;;;;;;;;;;;;;;;8419104;27;28682;-75
2022/11/29 23:25:20;;;;;;;;;;;;;;;;;;8419457;27;29642;-74
2022/11/29 23:29:21;;;;;;;;;;;;;;;;;;8398285;28;28644;-74
2022/11/29 23:33:21;;;;;;;;;;;;;;;;;;8403440;28;28613;-75
2022/11/29 23:37:21;;;;;;;;;;;;;;;;;;8424413;27;27690;-74
2022/11/29 23:41:21;;;;;;;;;;;;;;;;;;8429331;27;27363;-75
2022/11/29 23:45:21;;;;;;;;;;;;;;;;;;8409091;28;28191;-75
2022/11/29 23:49:21;;;;;;;;;;;;;;;;;;8429507;27;27345;-74
2022/11/29 23:53:21;;;;;;;;;;;;;;;;;;8431240;27;27567;-75
2022/11/29 23:57:21;;;;;;;;;;;;;;;;;;8411797;27;27237;-75
